sensor_id;sensor_type;location;lat;lon;timestamp;pressure;altitude;pressure_sealevel;temperature
43802;BMP280;29429;51.074;13.764;2023-06-14T00:00:47;100009.91;;;14.67
43802;BMP280;29429;51.074;13.764;2023-06-14T00:03:15;100010.13;;;14.66
43802;BMP280;29429;51.074;13.764;2023-06-14T00:05:44;100003.09;;;14.64
43802;BMP280;29429;51.074;13.764;2023-06-14T00:08:14;100003.56;;;14.61
43802;BMP280;29429;51.074;13.764;2023-06-14T00:10:41;100003.56;;;14.61
43802;BMP280;29429;51.074;13.764;2023-06-14T00:13:09;100004.03;;;14.58
43802;BMP280;29429;51.074;13.764;2023-06-14T00:15:37;100003.84;;;14.53
43802;BMP280;29429;51.074;13.764;2023-06-14T00:18:04;100005.81;;;14.46
43802;BMP280;29429;51.074;13.764;2023-06-14T00:20:33;100001.78;;;14.37
43802;BMP280;29429;51.074;13.764;2023-06-14T00:23:00;100003.25;;;14.33
43802;BMP280;29429;51.074;13.764;2023-06-14T00:25:28;99996.88;;;14.34
43802;BMP280;29429;51.074;13.764;2023-06-14T00:27:57;99994.66;;;14.25
43802;BMP280;29429;51.074;13.764;2023-06-14T00:30:25;99997.41;;;14.18
43802;BMP280;29429;51.074;13.764;2023-06-14T00:32:52;99984.19;;;14.17
43802;BMP280;29429;51.074;13.764;2023-06-14T00:35:19;99988.31;;;14.19
43802;BMP280;29429;51.074;13.764;2023-06-14T00:37:46;99986.69;;;14.18
43802;BMP280;29429;51.074;13.764;2023-06-14T00:40:13;99986.16;;;14.10
43802;BMP280;29429;51.074;13.764;2023-06-14T00:42:41;99986.22;;;14.03
43802;BMP280;29429;51.074;13.764;2023-06-14T00:45:10;99993.06;;;13.99
43802;BMP280;29429;51.074;13.764;2023-06-14T00:47:38;99999.69;;;13.96
43802;BMP280;29429;51.074;13.764;2023-06-14T00:50:09;99989.97;;;13.95
43802;BMP280;29429;51.074;13.764;2023-06-14T00:52:37;99993.50;;;13.96
43802;BMP280;29429;51.074;13.764;2023-06-14T00:55:05;99994.91;;;13.98
43802;BMP280;29429;51.074;13.764;2023-06-14T00:57:32;99990.81;;;13.96
43802;BMP280;29429;51.074;13.764;2023-06-14T00:59:59;99992.31;;;13.92
43802;BMP280;29429;51.074;13.764;2023-06-14T01:02:26;99982.63;;;13.91
43802;BMP280;29429;51.074;13.764;2023-06-14T01:04:54;99980.81;;;13.85
43802;BMP280;29429;51.074;13.764;2023-06-14T01:13:27;99997.16;;;13.77
43802;BMP280;29429;51.074;13.764;2023-06-14T01:15:56;99994.13;;;13.73
43802;BMP280;29429;51.074;13.764;2023-06-14T01:18:23;99998.06;;;13.71
43802;BMP280;29429;51.074;13.764;2023-06-14T01:20:53;99992.06;;;13.69
43802;BMP280;29429;51.074;13.764;2023-06-14T01:23:25;99992.06;;;13.69
43802;BMP280;29429;51.074;13.764;2023-06-14T01:26:00;99987.00;;;13.61
43802;BMP280;29429;51.074;13.764;2023-06-14T01:28:33;99987.66;;;13.56
43802;BMP280;29429;51.074;13.764;2023-06-14T01:31:02;99990.56;;;13.55
43802;BMP280;29429;51.074;13.764;2023-06-14T01:33:34;99986.22;;;13.54
43802;BMP280;29429;51.074;13.764;2023-06-14T01:36:05;99977.25;;;13.41
43802;BMP280;29429;51.074;13.764;2023-06-14T01:38:33;99979.13;;;13.41
43802;BMP280;29429;51.074;13.764;2023-06-14T01:41:01;99981.78;;;13.41
43802;BMP280;29429;51.074;13.764;2023-06-14T01:43:31;99982.03;;;13.39
43802;BMP280;29429;51.074;13.764;2023-06-14T01:46:00;99980.19;;;13.33
43802;BMP280;29429;51.074;13.764;2023-06-14T01:48:27;99983.06;;;13.32
43802;BMP280;29429;51.074;13.764;2023-06-14T01:50:54;99973.88;;;13.21
43802;BMP280;29429;51.074;13.764;2023-06-14T01:53:21;99983.41;;;13.17
43802;BMP280;29429;51.074;13.764;2023-06-14T01:55:49;99982.63;;;13.10
43802;BMP280;29429;51.074;13.764;2023-06-14T01:58:16;99990.84;;;13.15
43802;BMP280;29429;51.074;13.764;2023-06-14T02:00:43;99988.78;;;13.11
43802;BMP280;29429;51.074;13.764;2023-06-14T02:03:11;99993.94;;;13.06
43802;BMP280;29429;51.074;13.764;2023-06-14T02:05:39;99994.16;;;13.04
43802;BMP280;29429;51.074;13.764;2023-06-14T02:08:07;100003.22;;;13.03
43802;BMP280;29429;51.074;13.764;2023-06-14T02:10:34;100004.09;;;12.97
43802;BMP280;29429;51.074;13.764;2023-06-14T02:13:02;100000.41;;;12.92
43802;BMP280;29429;51.074;13.764;2023-06-14T02:15:29;99998.78;;;12.84
43802;BMP280;29429;51.074;13.764;2023-06-14T02:18:04;100003.34;;;12.77
43802;BMP280;29429;51.074;13.764;2023-06-14T02:20:33;99989.38;;;12.68
43802;BMP280;29429;51.074;13.764;2023-06-14T02:23:00;100005.06;;;12.65
43802;BMP280;29429;51.074;13.764;2023-06-14T02:25:30;99996.84;;;12.53
43802;BMP280;29429;51.074;13.764;2023-06-14T02:27:58;99995.69;;;12.30
43802;BMP280;29429;51.074;13.764;2023-06-14T02:30:25;100006.41;;;12.16
43802;BMP280;29429;51.074;13.764;2023-06-14T02:32:54;100001.06;;;12.16
43802;BMP280;29429;51.074;13.764;2023-06-14T02:35:21;100002.28;;;12.20
43802;BMP280;29429;51.074;13.764;2023-06-14T02:37:51;100013.41;;;12.17
43802;BMP280;29429;51.074;13.764;2023-06-14T02:40:22;100009.72;;;12.05
43802;BMP280;29429;51.074;13.764;2023-06-14T02:42:49;100010.78;;;11.91
43802;BMP280;29429;51.074;13.764;2023-06-14T02:45:17;100010.34;;;11.81
43802;BMP280;29429;51.074;13.764;2023-06-14T02:47:45;100020.84;;;11.76
43802;BMP280;29429;51.074;13.764;2023-06-14T02:50:13;100022.91;;;11.74
43802;BMP280;29429;51.074;13.764;2023-06-14T02:52:40;100024.97;;;11.72
43802;BMP280;29429;51.074;13.764;2023-06-14T02:55:11;100016.31;;;11.83
43802;BMP280;29429;51.074;13.764;2023-06-14T02:57:38;100012.00;;;11.95
43802;BMP280;29429;51.074;13.764;2023-06-14T03:00:08;100009.31;;;11.95
43802;BMP280;29429;51.074;13.764;2023-06-14T03:02:37;100017.72;;;12.05
43802;BMP280;29429;51.074;13.764;2023-06-14T03:05:05;100015.06;;;12.12
43802;BMP280;29429;51.074;13.764;2023-06-14T03:07:34;100018.34;;;12.14
43802;BMP280;29429;51.074;13.764;2023-06-14T03:10:04;100029.47;;;12.17
43802;BMP280;29429;51.074;13.764;2023-06-14T03:12:31;100020.38;;;12.18
43802;BMP280;29429;51.074;13.764;2023-06-14T03:14:58;100022.22;;;12.18
43802;BMP280;29429;51.074;13.764;2023-06-14T03:17:31;100028.41;;;12.25
43802;BMP280;29429;51.074;13.764;2023-06-14T03:20:00;100029.25;;;12.26
43802;BMP280;29429;51.074;13.764;2023-06-14T03:22:28;100022.00;;;12.26
43802;BMP280;29429;51.074;13.764;2023-06-14T03:24:55;100026.13;;;12.29
43802;BMP280;29429;51.074;13.764;2023-06-14T03:27:22;100024.88;;;12.31
43802;BMP280;29429;51.074;13.764;2023-06-14T03:29:49;100023.44;;;12.35
43802;BMP280;29429;51.074;13.764;2023-06-14T03:32:16;100025.91;;;12.37
43802;BMP280;29429;51.074;13.764;2023-06-14T03:34:44;100033.13;;;12.36
43802;BMP280;29429;51.074;13.764;2023-06-14T03:37:19;100038.03;;;12.39
43802;BMP280;29429;51.074;13.764;2023-06-14T03:39:47;100043.81;;;12.43
43802;BMP280;29429;51.074;13.764;2023-06-14T03:42:19;100038.84;;;12.46
43802;BMP280;29429;51.074;13.764;2023-06-14T03:44:47;100046.47;;;12.49
43802;BMP280;29429;51.074;13.764;2023-06-14T03:47:16;100042.13;;;12.55
43802;BMP280;29429;51.074;13.764;2023-06-14T03:49:43;100052.41;;;12.58
43802;BMP280;29429;51.074;13.764;2023-06-14T03:52:10;100053.81;;;12.60
43802;BMP280;29429;51.074;13.764;2023-06-14T03:54:40;100058.97;;;12.62
43802;BMP280;29429;51.074;13.764;2023-06-14T03:57:29;100066.38;;;12.66
43802;BMP280;29429;51.074;13.764;2023-06-14T03:59:57;100059.38;;;12.72
43802;BMP280;29429;51.074;13.764;2023-06-14T04:02:26;100067.59;;;12.77
43802;BMP280;29429;51.074;13.764;2023-06-14T04:04:55;100075.41;;;12.72
43802;BMP280;29429;51.074;13.764;2023-06-14T04:07:23;100072.97;;;12.70
43802;BMP280;29429;51.074;13.764;2023-06-14T04:09:50;100085.72;;;12.75
43802;BMP280;29429;51.074;13.764;2023-06-14T04:12:17;100083.63;;;12.77
43802;BMP280;29429;51.074;13.764;2023-06-14T04:14:44;100081.97;;;12.82
43802;BMP280;29429;51.074;13.764;2023-06-14T04:17:12;100082.16;;;12.88
43802;BMP280;29429;51.074;13.764;2023-06-14T04:19:43;100082.94;;;12.95
43802;BMP280;29429;51.074;13.764;2023-06-14T04:22:10;100075.09;;;13.06
43802;BMP280;29429;51.074;13.764;2023-06-14T04:24:38;100075.31;;;13.11
43802;BMP280;29429;51.074;13.764;2023-06-14T04:27:05;100069.94;;;13.11
43802;BMP280;29429;51.074;13.764;2023-06-14T04:29:34;100072.84;;;13.10
43802;BMP280;29429;51.074;13.764;2023-06-14T04:32:05;100076.34;;;13.10
43802;BMP280;29429;51.074;13.764;2023-06-14T04:34:37;100077.38;;;13.09
43802;BMP280;29429;51.074;13.764;2023-06-14T04:37:07;100077.13;;;13.17
43802;BMP280;29429;51.074;13.764;2023-06-14T04:39:37;100079.34;;;13.27
43802;BMP280;29429;51.074;13.764;2023-06-14T04:42:04;100089.00;;;13.34
43802;BMP280;29429;51.074;13.764;2023-06-14T04:44:34;100091.22;;;13.44
43802;BMP280;29429;51.074;13.764;2023-06-14T04:47:02;100095.50;;;13.52
43802;BMP280;29429;51.074;13.764;2023-06-14T04:49:30;100092.75;;;13.58
43802;BMP280;29429;51.074;13.764;2023-06-14T04:52:00;100102.22;;;13.67
43802;BMP280;29429;51.074;13.764;2023-06-14T04:54:34;100098.28;;;13.70
43802;BMP280;29429;51.074;13.764;2023-06-14T04:57:05;100105.75;;;13.61
43802;BMP280;29429;51.074;13.764;2023-06-14T04:59:32;100101.22;;;13.62
43802;BMP280;29429;51.074;13.764;2023-06-14T05:02:02;100108.22;;;13.63
43802;BMP280;29429;51.074;13.764;2023-06-14T05:04:29;100106.38;;;13.63
43802;BMP280;29429;51.074;13.764;2023-06-14T05:06:58;100103.03;;;13.68
43802;BMP280;29429;51.074;13.764;2023-06-14T05:09:25;100103.38;;;13.78
43802;BMP280;29429;51.074;13.764;2023-06-14T05:11:52;100112.59;;;13.88
43802;BMP280;29429;51.074;13.764;2023-06-14T05:14:20;100107.13;;;14.01
43802;BMP280;29429;51.074;13.764;2023-06-14T05:16:50;100111.03;;;14.06
43802;BMP280;29429;51.074;13.764;2023-06-14T05:19:17;100106.81;;;14.16
43802;BMP280;29429;51.074;13.764;2023-06-14T05:21:45;100111.22;;;14.29
43802;BMP280;29429;51.074;13.764;2023-06-14T05:24:13;100112.41;;;14.39
43802;BMP280;29429;51.074;13.764;2023-06-14T05:26:43;100117.66;;;14.52
43802;BMP280;29429;51.074;13.764;2023-06-14T05:29:11;100109.53;;;14.59
43802;BMP280;29429;51.074;13.764;2023-06-14T05:31:38;100113.81;;;14.67
43802;BMP280;29429;51.074;13.764;2023-06-14T05:34:06;100110.50;;;14.64
43802;BMP280;29429;51.074;13.764;2023-06-14T05:36:33;100104.53;;;14.62
43802;BMP280;29429;51.074;13.764;2023-06-14T05:39:00;100115.22;;;14.69
43802;BMP280;29429;51.074;13.764;2023-06-14T05:41:29;100112.16;;;14.66
43802;BMP280;29429;51.074;13.764;2023-06-14T05:43:57;100117.25;;;14.74
43802;BMP280;29429;51.074;13.764;2023-06-14T05:46:24;100120.22;;;14.84
43802;BMP280;29429;51.074;13.764;2023-06-14T05:48:54;100113.88;;;14.96
43802;BMP280;29429;51.074;13.764;2023-06-14T05:51:22;100116.34;;;15.16
43802;BMP280;29429;51.074;13.764;2023-06-14T05:53:53;100110.88;;;15.41
43802;BMP280;29429;51.074;13.764;2023-06-14T05:56:21;100110.59;;;15.60
43802;BMP280;29429;51.074;13.764;2023-06-14T05:58:49;100111.31;;;15.67
43802;BMP280;29429;51.074;13.764;2023-06-14T06:01:16;100107.72;;;15.73
43802;BMP280;29429;51.074;13.764;2023-06-14T06:03:43;100105.28;;;15.83
43802;BMP280;29429;51.074;13.764;2023-06-14T06:06:14;100098.56;;;15.93
43802;BMP280;29429;51.074;13.764;2023-06-14T06:08:41;100107.53;;;15.87
43802;BMP280;29429;51.074;13.764;2023-06-14T06:11:08;100120.28;;;15.79
43802;BMP280;29429;51.074;13.764;2023-06-14T06:13:35;100111.28;;;15.86
43802;BMP280;29429;51.074;13.764;2023-06-14T06:16:03;100110.72;;;15.95
43802;BMP280;29429;51.074;13.764;2023-06-14T06:18:30;100125.81;;;15.96
43802;BMP280;29429;51.074;13.764;2023-06-14T06:20:58;100120.44;;;16.08
43802;BMP280;29429;51.074;13.764;2023-06-14T06:23:25;100122.72;;;16.22
43802;BMP280;29429;51.074;13.764;2023-06-14T06:25:52;100116.28;;;16.35
43802;BMP280;29429;51.074;13.764;2023-06-14T06:28:20;100121.69;;;16.47
43802;BMP280;29429;51.074;13.764;2023-06-14T06:30:47;100126.63;;;16.61
43802;BMP280;29429;51.074;13.764;2023-06-14T06:33:14;100133.31;;;16.70
43802;BMP280;29429;51.074;13.764;2023-06-14T06:35:41;100124.88;;;16.78
43802;BMP280;29429;51.074;13.764;2023-06-14T06:38:09;100124.00;;;16.89
43802;BMP280;29429;51.074;13.764;2023-06-14T06:40:37;100121.56;;;16.99
43802;BMP280;29429;51.074;13.764;2023-06-14T06:43:04;100127.97;;;17.10
43802;BMP280;29429;51.074;13.764;2023-06-14T06:45:42;100124.78;;;17.25
43802;BMP280;29429;51.074;13.764;2023-06-14T06:48:09;100114.09;;;17.30
43802;BMP280;29429;51.074;13.764;2023-06-14T06:50:37;100125.53;;;17.37
43802;BMP280;29429;51.074;13.764;2023-06-14T06:53:04;100119.28;;;17.48
43802;BMP280;29429;51.074;13.764;2023-06-14T06:55:32;100126.56;;;17.59
43802;BMP280;29429;51.074;13.764;2023-06-14T06:57:59;100113.25;;;17.69
43802;BMP280;29429;51.074;13.764;2023-06-14T07:00:27;100119.41;;;17.81
43802;BMP280;29429;51.074;13.764;2023-06-14T07:02:54;100114.69;;;17.88
43802;BMP280;29429;51.074;13.764;2023-06-14T07:05:22;100117.31;;;18.00
43802;BMP280;29429;51.074;13.764;2023-06-14T07:07:49;100107.50;;;18.10
43802;BMP280;29429;51.074;13.764;2023-06-14T07:10:16;100113.81;;;18.16
43802;BMP280;29429;51.074;13.764;2023-06-14T07:12:43;100118.97;;;18.17
43802;BMP280;29429;51.074;13.764;2023-06-14T07:15:11;100117.00;;;18.13
43802;BMP280;29429;51.074;13.764;2023-06-14T07:17:39;100117.16;;;18.06
43802;BMP280;29429;51.074;13.764;2023-06-14T07:20:08;100115.22;;;18.18
43802;BMP280;29429;51.074;13.764;2023-06-14T07:22:42;100109.47;;;18.32
43802;BMP280;29429;51.074;13.764;2023-06-14T07:25:13;100116.66;;;18.43
43802;BMP280;29429;51.074;13.764;2023-06-14T07:27:43;100113.66;;;18.56
43802;BMP280;29429;51.074;13.764;2023-06-14T07:30:11;100116.50;;;18.66
43802;BMP280;29429;51.074;13.764;2023-06-14T07:32:38;100115.84;;;18.75
43802;BMP280;29429;51.074;13.764;2023-06-14T07:35:06;100120.66;;;18.73
43802;BMP280;29429;51.074;13.764;2023-06-14T07:37:33;100116.66;;;18.76
43802;BMP280;29429;51.074;13.764;2023-06-14T07:40:00;100113.69;;;18.77
43802;BMP280;29429;51.074;13.764;2023-06-14T07:42:29;100116.47;;;18.82
43802;BMP280;29429;51.074;13.764;2023-06-14T07:44:56;100117.75;;;18.97
43802;BMP280;29429;51.074;13.764;2023-06-14T07:47:23;100118.19;;;19.10
43802;BMP280;29429;51.074;13.764;2023-06-14T07:49:50;100118.81;;;19.17
43802;BMP280;29429;51.074;13.764;2023-06-14T07:52:17;100115.66;;;19.25
43802;BMP280;29429;51.074;13.764;2023-06-14T07:54:44;100116.41;;;19.37
43802;BMP280;29429;51.074;13.764;2023-06-14T07:57:12;100130.09;;;19.53
43802;BMP280;29429;51.074;13.764;2023-06-14T07:59:39;100126.66;;;19.62
43802;BMP280;29429;51.074;13.764;2023-06-14T08:02:06;100129.25;;;19.74
43802;BMP280;29429;51.074;13.764;2023-06-14T08:04:33;100126.59;;;19.79
43802;BMP280;29429;51.074;13.764;2023-06-14T08:07:01;100130.00;;;19.96
43802;BMP280;29429;51.074;13.764;2023-06-14T08:09:28;100126.66;;;20.16
43802;BMP280;29429;51.074;13.764;2023-06-14T08:11:56;100124.09;;;20.31
43802;BMP280;29429;51.074;13.764;2023-06-14T08:14:23;100118.22;;;20.44
43802;BMP280;29429;51.074;13.764;2023-06-14T08:16:50;100117.75;;;20.52
43802;BMP280;29429;51.074;13.764;2023-06-14T08:19:17;100119.47;;;20.63
43802;BMP280;29429;51.074;13.764;2023-06-14T08:21:46;100115.50;;;20.76
43802;BMP280;29429;51.074;13.764;2023-06-14T08:24:14;100110.97;;;20.96
43802;BMP280;29429;51.074;13.764;2023-06-14T08:26:44;100114.59;;;21.07
43802;BMP280;29429;51.074;13.764;2023-06-14T08:29:12;100121.94;;;21.16
43802;BMP280;29429;51.074;13.764;2023-06-14T08:31:39;100119.81;;;21.23
43802;BMP280;29429;51.074;13.764;2023-06-14T08:34:06;100115.22;;;21.34
43802;BMP280;29429;51.074;13.764;2023-06-14T08:36:35;100116.63;;;21.42
43802;BMP280;29429;51.074;13.764;2023-06-14T08:39:02;100109.38;;;21.05
43802;BMP280;29429;51.074;13.764;2023-06-14T08:41:30;100126.56;;;21.21
43802;BMP280;29429;51.074;13.764;2023-06-14T08:43:57;100123.34;;;21.24
43802;BMP280;29429;51.074;13.764;2023-06-14T08:46:26;100118.50;;;21.31
43802;BMP280;29429;51.074;13.764;2023-06-14T08:48:57;100122.84;;;21.42
43802;BMP280;29429;51.074;13.764;2023-06-14T08:51:25;100125.56;;;21.42
43802;BMP280;29429;51.074;13.764;2023-06-14T08:53:55;100120.13;;;21.42
43802;BMP280;29429;51.074;13.764;2023-06-14T08:56:28;100116.88;;;21.40
43802;BMP280;29429;51.074;13.764;2023-06-14T08:58:57;100113.59;;;21.28
43802;BMP280;29429;51.074;13.764;2023-06-14T09:01:28;100109.19;;;21.12
43802;BMP280;29429;51.074;13.764;2023-06-14T09:03:55;100118.63;;;21.04
43802;BMP280;29429;51.074;13.764;2023-06-14T09:06:24;100120.59;;;21.19
43802;BMP280;29429;51.074;13.764;2023-06-14T09:08:51;100109.03;;;21.39
43802;BMP280;29429;51.074;13.764;2023-06-14T09:11:20;100119.63;;;21.45
43802;BMP280;29429;51.074;13.764;2023-06-14T09:13:49;100118.00;;;21.49
43802;BMP280;29429;51.074;13.764;2023-06-14T09:16:17;100106.91;;;21.61
43802;BMP280;29429;51.074;13.764;2023-06-14T09:18:47;100117.81;;;21.81
43802;BMP280;29429;51.074;13.764;2023-06-14T09:21:16;100117.03;;;22.01
43802;BMP280;29429;51.074;13.764;2023-06-14T09:23:47;100119.25;;;22.29
43802;BMP280;29429;51.074;13.764;2023-06-14T09:26:19;100111.03;;;22.54
43802;BMP280;29429;51.074;13.764;2023-06-14T09:28:50;100112.66;;;22.75
43802;BMP280;29429;51.074;13.764;2023-06-14T09:31:20;100112.63;;;22.85
43802;BMP280;29429;51.074;13.764;2023-06-14T09:33:49;100118.06;;;23.00
43802;BMP280;29429;51.074;13.764;2023-06-14T09:36:21;100113.16;;;22.97
43802;BMP280;29429;51.074;13.764;2023-06-14T09:38:59;100105.22;;;23.11
43802;BMP280;29429;51.074;13.764;2023-06-14T09:41:39;100104.97;;;23.08
43802;BMP280;29429;51.074;13.764;2023-06-14T09:44:08;100106.56;;;23.19
43802;BMP280;29429;51.074;13.764;2023-06-14T09:46:44;100105.44;;;23.20
43802;BMP280;29429;51.074;13.764;2023-06-14T09:49:11;100106.25;;;23.25
43802;BMP280;29429;51.074;13.764;2023-06-14T09:51:45;100101.00;;;23.44
43802;BMP280;29429;51.074;13.764;2023-06-14T09:54:29;100101.53;;;23.46
43802;BMP280;29429;51.074;13.764;2023-06-14T09:56:59;100099.25;;;23.63
43802;BMP280;29429;51.074;13.764;2023-06-14T09:59:29;100106.53;;;23.73
43802;BMP280;29429;51.074;13.764;2023-06-14T10:02:15;100097.97;;;23.50
43802;BMP280;29429;51.074;13.764;2023-06-14T10:04:57;100103.75;;;23.34
43802;BMP280;29429;51.074;13.764;2023-06-14T10:07:32;100100.66;;;22.86
43802;BMP280;29429;51.074;13.764;2023-06-14T10:10:01;100107.81;;;22.47
43802;BMP280;29429;51.074;13.764;2023-06-14T10:12:28;100106.16;;;22.06
43802;BMP280;29429;51.074;13.764;2023-06-14T10:14:56;100101.28;;;21.88
43802;BMP280;29429;51.074;13.764;2023-06-14T10:17:50;100106.13;;;21.85
43802;BMP280;29429;51.074;13.764;2023-06-14T10:20:32;100106.06;;;21.55
43802;BMP280;29429;51.074;13.764;2023-06-14T10:23:10;100106.31;;;21.44
43802;BMP280;29429;51.074;13.764;2023-06-14T10:25:38;100103.84;;;21.37
43802;BMP280;29429;51.074;13.764;2023-06-14T10:28:20;100103.00;;;21.32
43802;BMP280;29429;51.074;13.764;2023-06-14T10:31:09;100096.28;;;21.49
43802;BMP280;29429;51.074;13.764;2023-06-14T10:36:30;100100.72;;;21.96
43802;BMP280;29429;51.074;13.764;2023-06-14T10:38:58;100094.75;;;22.09
43802;BMP280;29429;51.074;13.764;2023-06-14T10:41:29;100101.56;;;22.01
43802;BMP280;29429;51.074;13.764;2023-06-14T10:46:55;100096.94;;;22.42
43802;BMP280;29429;51.074;13.764;2023-06-14T10:49:38;100087.69;;;22.33
43802;BMP280;29429;51.074;13.764;2023-06-14T10:52:10;100081.16;;;22.19
43802;BMP280;29429;51.074;13.764;2023-06-14T10:55:17;100077.91;;;22.07
43802;BMP280;29429;51.074;13.764;2023-06-14T10:57:52;100091.50;;;22.02
43802;BMP280;29429;51.074;13.764;2023-06-14T11:00:49;100083.34;;;22.02
43802;BMP280;29429;51.074;13.764;2023-06-14T11:03:53;100076.03;;;22.17
43802;BMP280;29429;51.074;13.764;2023-06-14T11:06:47;100078.69;;;22.42
43802;BMP280;29429;51.074;13.764;2023-06-14T11:13:46;100083.84;;;22.54
43802;BMP280;29429;51.074;13.764;2023-06-14T11:16:47;100084.94;;;22.48
43802;BMP280;29429;51.074;13.764;2023-06-14T11:20:24;100074.09;;;22.28
43802;BMP280;29429;51.074;13.764;2023-06-14T11:29:14;100074.84;;;22.59
43802;BMP280;29429;51.074;13.764;2023-06-14T11:36:51;100093.06;;;22.78
43802;BMP280;29429;51.074;13.764;2023-06-14T11:41:00;100079.50;;;22.48
43802;BMP280;29429;51.074;13.764;2023-06-14T11:44:21;100077.66;;;22.23
43802;BMP280;29429;51.074;13.764;2023-06-14T11:48:20;100076.00;;;22.22
43802;BMP280;29429;51.074;13.764;2023-06-14T11:55:05;100078.97;;;22.66
43802;BMP280;29429;51.074;13.764;2023-06-14T11:58:07;100076.78;;;22.73
43802;BMP280;29429;51.074;13.764;2023-06-14T12:00:36;100074.28;;;22.87
43802;BMP280;29429;51.074;13.764;2023-06-14T12:03:04;100076.09;;;23.07
43802;BMP280;29429;51.074;13.764;2023-06-14T12:05:33;100067.44;;;22.99
43802;BMP280;29429;51.074;13.764;2023-06-14T12:08:03;100067.44;;;22.99
43802;BMP280;29429;51.074;13.764;2023-06-14T12:10:41;100068.69;;;23.22
43802;BMP280;29429;51.074;13.764;2023-06-14T12:13:10;100074.09;;;23.32
43802;BMP280;29429;51.074;13.764;2023-06-14T12:15:37;100077.41;;;23.24
43802;BMP280;29429;51.074;13.764;2023-06-14T12:18:06;100077.44;;;23.14
43802;BMP280;29429;51.074;13.764;2023-06-14T12:20:36;100072.84;;;23.04
43802;BMP280;29429;51.074;13.764;2023-06-14T12:23:04;100069.06;;;23.00
43802;BMP280;29429;51.074;13.764;2023-06-14T12:25:36;100072.38;;;22.92
43802;BMP280;29429;51.074;13.764;2023-06-14T12:28:08;100072.38;;;22.87
43802;BMP280;29429;51.074;13.764;2023-06-14T12:30:37;100059.31;;;22.89
43802;BMP280;29429;51.074;13.764;2023-06-14T12:33:05;100059.78;;;23.01
43802;BMP280;29429;51.074;13.764;2023-06-14T12:35:33;100060.84;;;23.16
43802;BMP280;29429;51.074;13.764;2023-06-14T12:38:00;100066.81;;;23.18
43802;BMP280;29429;51.074;13.764;2023-06-14T12:40:28;100060.91;;;23.00
43802;BMP280;29429;51.074;13.764;2023-06-14T12:42:55;100052.53;;;22.82
43802;BMP280;29429;51.074;13.764;2023-06-14T12:45:22;100063.44;;;22.72
43802;BMP280;29429;51.074;13.764;2023-06-14T12:47:50;100061.28;;;22.69
43802;BMP280;29429;51.074;13.764;2023-06-14T12:50:18;100063.72;;;22.60
43802;BMP280;29429;51.074;13.764;2023-06-14T12:52:48;100052.88;;;22.65
43802;BMP280;29429;51.074;13.764;2023-06-14T12:55:16;100058.56;;;22.54
43802;BMP280;29429;51.074;13.764;2023-06-14T12:57:43;100058.06;;;22.41
43802;BMP280;29429;51.074;13.764;2023-06-14T13:00:11;100059.19;;;22.15
43802;BMP280;29429;51.074;13.764;2023-06-14T13:02:40;100052.13;;;21.99
43802;BMP280;29429;51.074;13.764;2023-06-14T13:05:07;100040.16;;;22.05
43802;BMP280;29429;51.074;13.764;2023-06-14T13:07:35;100049.38;;;22.24
43802;BMP280;29429;51.074;13.764;2023-06-14T13:10:03;100035.41;;;22.61
43802;BMP280;29429;51.074;13.764;2023-06-14T13:12:30;100041.09;;;22.90
43802;BMP280;29429;51.074;13.764;2023-06-14T13:14:57;100035.84;;;23.09
43802;BMP280;29429;51.074;13.764;2023-06-14T13:17:24;100042.06;;;23.09
43802;BMP280;29429;51.074;13.764;2023-06-14T13:19:51;100041.91;;;22.85
43802;BMP280;29429;51.074;13.764;2023-06-14T13:22:18;100041.44;;;22.68
43802;BMP280;29429;51.074;13.764;2023-06-14T13:24:45;100047.41;;;22.55
43802;BMP280;29429;51.074;13.764;2023-06-14T13:27:12;100051.28;;;22.34
43802;BMP280;29429;51.074;13.764;2023-06-14T13:29:41;100044.75;;;22.15
43802;BMP280;29429;51.074;13.764;2023-06-14T13:32:08;100049.09;;;22.11
43802;BMP280;29429;51.074;13.764;2023-06-14T13:34:35;100038.22;;;22.26
43802;BMP280;29429;51.074;13.764;2023-06-14T13:37:02;100027.31;;;22.41
43802;BMP280;29429;51.074;13.764;2023-06-14T13:40:02;100028.38;;;22.60
43802;BMP280;29429;51.074;13.764;2023-06-14T13:42:51;100031.56;;;22.82
43802;BMP280;29429;51.074;13.764;2023-06-14T13:45:19;100024.75;;;22.85
43802;BMP280;29429;51.074;13.764;2023-06-14T13:47:46;100026.06;;;23.02
43802;BMP280;29429;51.074;13.764;2023-06-14T13:50:15;100030.88;;;23.16
43802;BMP280;29429;51.074;13.764;2023-06-14T13:52:43;100027.56;;;23.24
43802;BMP280;29429;51.074;13.764;2023-06-14T13:55:10;100019.91;;;23.31
43802;BMP280;29429;51.074;13.764;2023-06-14T13:57:37;100024.78;;;23.39
43802;BMP280;29429;51.074;13.764;2023-06-14T14:00:05;100023.84;;;23.04
43802;BMP280;29429;51.074;13.764;2023-06-14T14:02:38;100032.13;;;22.84
43802;BMP280;29429;51.074;13.764;2023-06-14T14:05:08;100021.31;;;22.64
43802;BMP280;29429;51.074;13.764;2023-06-14T14:07:35;100021.84;;;22.56
43802;BMP280;29429;51.074;13.764;2023-06-14T14:10:03;100012.34;;;22.54
43802;BMP280;29429;51.074;13.764;2023-06-14T14:12:30;100019.94;;;22.67
43802;BMP280;29429;51.074;13.764;2023-06-14T14:14:58;100017.41;;;22.85
43802;BMP280;29429;51.074;13.764;2023-06-14T14:17:25;100009.19;;;22.95
43802;BMP280;29429;51.074;13.764;2023-06-14T14:19:52;100018.78;;;22.83
43802;BMP280;29429;51.074;13.764;2023-06-14T14:22:19;100020.19;;;22.70
43802;BMP280;29429;51.074;13.764;2023-06-14T14:24:46;100019.69;;;22.58
43802;BMP280;29429;51.074;13.764;2023-06-14T14:27:14;100021.06;;;22.45
43802;BMP280;29429;51.074;13.764;2023-06-14T14:29:41;100014.81;;;22.40
43802;BMP280;29429;51.074;13.764;2023-06-14T14:32:08;100018.09;;;22.42
43802;BMP280;29429;51.074;13.764;2023-06-14T14:34:40;100021.03;;;22.51
43802;BMP280;29429;51.074;13.764;2023-06-14T14:37:08;100012.59;;;22.57